createdAt,value
2017-10-30T00:00:02.335Z,958.44
2017-10-30T00:01:02.385Z,958.49
2017-10-30T00:02:02.365Z,958.46
2017-10-30T00:03:02.381Z,958.45
2017-10-30T00:04:02.394Z,958.44
2017-10-30T00:05:02.410Z,958.43
2017-10-30T00:06:02.425Z,958.45
2017-10-30T00:07:02.440Z,958.49
2017-10-30T00:08:02.455Z,958.49
2017-10-30T00:09:02.469Z,958.49
2017-10-30T00:10:02.486Z,958.54
2017-10-30T00:11:02.501Z,958.57
2017-10-30T00:12:02.565Z,958.56
2017-10-30T00:13:02.530Z,958.54
2017-10-30T00:14:02.545Z,958.56
2017-10-30T00:15:02.564Z,958.61
2017-10-30T00:16:02.575Z,958.59
2017-10-30T00:17:02.590Z,958.66
2017-10-30T00:18:02.606Z,958.67
2017-10-30T00:19:02.620Z,958.64
2017-10-30T00:20:02.635Z,958.66
2017-10-30T00:21:02.650Z,958.62
2017-10-30T00:22:02.667Z,958.65
2017-10-30T00:23:02.697Z,958.62
2017-10-30T00:24:02.694Z,958.69
2017-10-30T00:25:02.709Z,958.67
2017-10-30T00:26:02.725Z,958.71
2017-10-30T00:27:02.739Z,958.69
2017-10-30T00:28:02.805Z,958.73
2017-10-30T00:29:02.769Z,958.7
2017-10-30T00:30:02.784Z,958.74
2017-10-30T00:31:02.798Z,958.67
2017-10-30T00:32:02.814Z,958.72
2017-10-30T00:33:02.831Z,958.72
2017-10-30T00:34:02.843Z,958.72
2017-10-30T00:35:02.858Z,958.68
2017-10-30T00:36:02.873Z,958.69
2017-10-30T00:37:02.889Z,958.63
2017-10-30T00:38:02.901Z,958.7
2017-10-30T00:39:02.918Z,958.64
2017-10-30T00:40:02.932Z,958.67
2017-10-30T00:41:02.947Z,958.7
2017-10-30T00:42:02.964Z,958.67
2017-10-30T00:43:02.977Z,958.65
2017-10-30T00:44:02.994Z,958.77
2017-10-30T00:45:03.008Z,958.78
2017-10-30T00:46:03.071Z,958.75
2017-10-30T00:47:03.037Z,958.76
2017-10-30T00:48:03.052Z,958.75
2017-10-30T00:49:03.066Z,958.77
2017-10-30T00:50:03.083Z,958.81
2017-10-30T00:51:03.098Z,958.8
2017-10-30T00:52:03.116Z,958.77
2017-10-30T00:53:03.126Z,958.83
2017-10-30T00:54:03.143Z,958.8
2017-10-30T00:55:03.158Z,958.8
2017-10-30T00:56:03.172Z,958.76
2017-10-30T00:57:03.186Z,958.84
2017-10-30T00:58:03.204Z,958.83
2017-10-30T00:59:03.217Z,958.84
2017-10-30T01:00:03.229Z,958.92
2017-10-30T01:01:03.296Z,958.9
2017-10-30T01:02:03.261Z,958.9
2017-10-30T01:03:03.275Z,958.92
2017-10-30T01:04:03.290Z,958.96
2017-10-30T01:05:03.305Z,958.96
2017-10-30T01:06:03.319Z,958.99
2017-10-30T01:07:03.333Z,958.98
2017-10-30T01:08:03.349Z,959
2017-10-30T01:09:03.365Z,959.03
2017-10-30T01:10:03.378Z,959.03
2017-10-30T01:11:03.392Z,959.03
2017-10-30T01:12:03.409Z,959.03
2017-10-30T01:13:03.424Z,959.02
2017-10-30T01:14:03.437Z,959.08
2017-10-30T01:15:03.451Z,959.12
2017-10-30T01:16:03.467Z,959.04
2017-10-30T01:17:03.482Z,959.02
2017-10-30T01:18:03.546Z,959.01
2017-10-30T01:19:03.511Z,959.04
2017-10-30T01:20:03.529Z,959.05
2017-10-30T01:21:03.548Z,959.05
2017-10-30T01:22:03.555Z,959.04
2017-10-30T01:23:03.570Z,958.99
2017-10-30T01:24:03.586Z,958.98
2017-10-30T01:25:03.600Z,959.06
2017-10-30T01:26:03.614Z,959
2017-10-30T01:27:03.629Z,958.99
2017-10-30T01:28:03.644Z,958.99
2017-10-30T01:29:03.659Z,959.02
2017-10-30T01:30:03.674Z,959.03
2017-10-30T01:31:03.688Z,959.02
2017-10-30T01:32:03.704Z,959.03
2017-10-30T01:33:03.768Z,959.06
2017-10-30T01:34:03.733Z,959.03
2017-10-30T01:35:03.748Z,959.01
2017-10-30T01:36:03.761Z,959.03
2017-10-30T01:37:03.777Z,959.04
2017-10-30T01:38:03.792Z,959
2017-10-30T01:39:03.806Z,959.05
2017-10-30T01:40:03.821Z,959.02
2017-10-30T01:41:03.835Z,959.05
2017-10-30T01:42:03.849Z,959.02
2017-10-30T01:43:03.885Z,959.03
2017-10-30T01:44:03.880Z,959.07
2017-10-30T01:45:03.896Z,959.02
2017-10-30T01:46:03.911Z,959.01
2017-10-30T01:47:03.924Z,959.04
2017-10-30T01:48:03.939Z,959.04
2017-10-30T01:49:03.954Z,959.08
2017-10-30T01:50:03.980Z,959.08
2017-10-30T01:51:03.986Z,959.07
2017-10-30T01:52:04.048Z,959.06
2017-10-30T01:53:04.013Z,959.08
2017-10-30T01:54:04.030Z,959.1
2017-10-30T01:55:04.042Z,959.06
2017-10-30T01:56:04.058Z,959.11
2017-10-30T01:57:04.075Z,959.12
2017-10-30T01:58:04.085Z,959.11
2017-10-30T01:59:04.103Z,959.04
2017-10-30T02:00:04.119Z,959.13
2017-10-30T02:01:04.132Z,959.13
2017-10-30T02:02:04.145Z,959.16
2017-10-30T02:03:04.161Z,959.2
2017-10-30T02:04:04.174Z,959.19
2017-10-30T02:05:04.191Z,959.19
2017-10-30T02:06:04.204Z,959.15
2017-10-30T02:07:04.268Z,959.2
2017-10-30T02:08:04.238Z,959.15
2017-10-30T02:09:04.246Z,959.19
2017-10-30T02:10:04.263Z,959.17
2017-10-30T02:11:04.277Z,959.22
2017-10-30T02:12:04.306Z,959.17
2017-10-30T02:13:04.305Z,959.13
2017-10-30T02:14:04.320Z,959.13
2017-10-30T02:15:04.337Z,959.16
2017-10-30T02:16:04.350Z,959.16
2017-10-30T02:17:04.364Z,959.12
2017-10-30T02:18:04.380Z,959.15
2017-10-30T02:19:04.393Z,959.16
2017-10-30T02:20:04.408Z,959.11
2017-10-30T02:21:04.424Z,959.15
2017-10-30T02:22:04.437Z,959.21
2017-10-30T02:23:04.453Z,959.15
2017-10-30T02:24:04.466Z,959.14
2017-10-30T02:25:04.483Z,959.14
2017-10-30T02:26:04.496Z,959.19
2017-10-30T02:27:04.511Z,959.2
2017-10-30T02:28:04.525Z,959.19
2017-10-30T02:29:04.541Z,959.19
2017-10-30T02:30:04.555Z,959.18
2017-10-30T02:31:04.569Z,959.21
2017-10-30T02:32:04.585Z,959.21
2017-10-30T02:33:04.600Z,959.33
2017-10-30T02:34:04.615Z,959.29
2017-10-30T02:35:04.631Z,959.33
2017-10-30T02:36:04.642Z,959.33
2017-10-30T02:37:04.658Z,959.36
2017-10-30T02:38:04.674Z,959.28
2017-10-30T02:39:04.688Z,959.36
2017-10-30T02:40:04.752Z,959.36
2017-10-30T02:41:04.720Z,959.36
2017-10-30T02:42:04.730Z,959.41
2017-10-30T02:43:04.747Z,959.36
2017-10-30T02:44:04.764Z,959.46
2017-10-30T02:45:04.777Z,959.41
2017-10-30T02:46:04.793Z,959.41
2017-10-30T02:47:04.803Z,959.41
2017-10-30T02:48:04.819Z,959.39
2017-10-30T02:49:04.832Z,959.43
2017-10-30T02:50:04.847Z,959.42
2017-10-30T02:51:04.863Z,959.46
2017-10-30T02:52:04.878Z,959.44
2017-10-30T02:53:04.890Z,959.51
2017-10-30T02:54:04.908Z,959.49
2017-10-30T02:55:04.972Z,959.53
2017-10-30T02:56:04.938Z,959.53
2017-10-30T02:57:04.956Z,959.55
2017-10-30T02:58:04.965Z,959.56
2017-10-30T02:59:04.980Z,959.52
2017-10-30T03:00:04.995Z,959.57
2017-10-30T03:01:05.009Z,959.57
2017-10-30T03:02:05.024Z,959.64
2017-10-30T03:03:05.040Z,959.62
2017-10-30T03:04:05.053Z,959.62
2017-10-30T03:05:05.068Z,959.62
2017-10-30T03:06:05.084Z,959.66
2017-10-30T03:07:05.099Z,959.64
2017-10-30T03:08:05.121Z,959.64
2017-10-30T03:09:05.127Z,959.66
2017-10-30T03:10:06.394Z,959.7
2017-10-30T03:11:05.156Z,959.65
2017-10-30T03:12:05.170Z,959.68
2017-10-30T03:13:05.185Z,959.67
2017-10-30T03:14:05.200Z,959.68
2017-10-30T03:15:05.213Z,959.71
2017-10-30T03:16:05.230Z,959.72
2017-10-30T03:17:05.243Z,959.71
2017-10-30T03:18:05.259Z,959.73
2017-10-30T03:19:05.274Z,959.71
2017-10-30T03:20:05.289Z,959.7
2017-10-30T03:21:05.304Z,959.78
2017-10-30T03:22:05.317Z,959.75
2017-10-30T03:23:05.337Z,959.71
2017-10-30T03:24:05.348Z,959.71
2017-10-30T03:25:05.366Z,959.69
2017-10-30T03:26:05.376Z,959.69
2017-10-30T03:27:05.390Z,959.65
2017-10-30T03:28:05.406Z,959.71
2017-10-30T03:29:05.469Z,959.71
2017-10-30T03:30:05.436Z,959.7
2017-10-30T03:31:05.451Z,959.74
2017-10-30T03:32:05.465Z,959.76
2017-10-30T03:33:05.479Z,959.79
2017-10-30T03:34:05.494Z,959.82
2017-10-30T03:35:05.509Z,959.76
2017-10-30T03:36:05.522Z,959.73
2017-10-30T03:37:05.537Z,959.74
2017-10-30T03:38:05.552Z,959.78
2017-10-30T03:39:05.569Z,959.81
2017-10-30T03:40:05.581Z,959.85
2017-10-30T03:41:05.595Z,959.78
2017-10-30T03:42:05.611Z,959.85
2017-10-30T03:43:05.625Z,959.85
2017-10-30T03:44:05.689Z,959.87
2017-10-30T03:45:05.654Z,959.9
2017-10-30T03:46:05.668Z,959.92
2017-10-30T03:47:05.683Z,959.9
2017-10-30T03:48:05.698Z,959.95
2017-10-30T03:49:05.713Z,959.92
2017-10-30T03:50:05.728Z,959.96
2017-10-30T03:51:05.741Z,959.98
2017-10-30T03:52:05.757Z,960
2017-10-30T03:53:05.770Z,960
2017-10-30T03:54:05.786Z,960.04
2017-10-30T03:55:05.800Z,960.07
2017-10-30T03:56:05.813Z,960.08
2017-10-30T03:57:05.833Z,960.09
2017-10-30T03:58:05.849Z,960.08
2017-10-30T03:59:05.858Z,960.12
2017-10-30T04:00:05.873Z,960.13
2017-10-30T04:01:05.910Z,960.12
2017-10-30T04:02:05.902Z,960.13
2017-10-30T04:03:05.917Z,960.12
2017-10-30T04:04:05.931Z,960.09
2017-10-30T04:05:05.946Z,960.11
2017-10-30T04:06:05.960Z,960.16
2017-10-30T04:07:05.975Z,960.13
2017-10-30T04:08:06.000Z,960.1
2017-10-30T04:09:06.003Z,960.13
2017-10-30T04:10:06.021Z,960.16
2017-10-30T04:11:06.032Z,960.17
2017-10-30T04:12:06.048Z,960.17
2017-10-30T04:13:06.062Z,960.13
2017-10-30T04:14:06.077Z,960.15
2017-10-30T04:15:06.091Z,960.16
2017-10-30T04:16:06.105Z,960.16
2017-10-30T04:17:06.123Z,960.18
2017-10-30T04:18:06.134Z,960.17
2017-10-30T04:19:06.150Z,960.24
2017-10-30T04:20:06.165Z,960.22
2017-10-30T04:21:06.178Z,960.2
2017-10-30T04:22:06.193Z,960.18
2017-10-30T04:23:06.208Z,960.19
2017-10-30T04:24:06.221Z,960.2
2017-10-30T04:25:06.238Z,960.2
2017-10-30T04:26:06.253Z,960.21
2017-10-30T04:27:06.266Z,960.19
2017-10-30T04:28:06.280Z,960.2
2017-10-30T04:29:06.296Z,960.15
2017-10-30T04:30:06.328Z,960.17
2017-10-30T04:31:06.324Z,960.18
2017-10-30T04:32:06.338Z,960.2
2017-10-30T04:33:06.354Z,960.24
2017-10-30T04:34:06.369Z,960.22
2017-10-30T04:35:06.382Z,960.26
2017-10-30T04:36:06.398Z,960.22
2017-10-30T04:37:06.415Z,960.25
2017-10-30T04:38:06.427Z,960.2
2017-10-30T04:39:06.493Z,960.19
2017-10-30T04:40:06.456Z,960.24
2017-10-30T04:41:06.470Z,960.2
2017-10-30T04:42:06.487Z,960.2
2017-10-30T04:43:06.500Z,960.17
2017-10-30T04:44:06.517Z,960.24
2017-10-30T04:45:06.531Z,960.23
2017-10-30T04:46:06.552Z,960.29
2017-10-30T04:47:06.560Z,960.26
2017-10-30T04:48:06.583Z,960.29
2017-10-30T04:49:06.591Z,960.29
2017-10-30T04:50:06.605Z,960.3
2017-10-30T04:51:06.619Z,960.27
2017-10-30T04:52:06.634Z,960.26
2017-10-30T04:53:06.655Z,960.29
2017-10-30T04:54:06.664Z,960.29
2017-10-30T04:55:06.737Z,960.31
2017-10-30T04:56:06.698Z,960.31
2017-10-30T04:57:06.710Z,960.32
2017-10-30T04:58:06.724Z,960.32
2017-10-30T04:59:06.745Z,960.4
2017-10-30T05:00:06.755Z,960.29
2017-10-30T05:01:06.767Z,960.34
2017-10-30T05:02:06.785Z,960.4
2017-10-30T05:03:06.799Z,960.35
2017-10-30T05:04:06.812Z,960.41
2017-10-30T05:05:06.828Z,960.4
2017-10-30T05:06:06.843Z,960.39
2017-10-30T05:07:06.858Z,960.41
2017-10-30T05:08:06.872Z,960.38
2017-10-30T05:09:06.888Z,960.36
2017-10-30T05:10:06.902Z,960.37
2017-10-30T05:11:06.917Z,960.4
2017-10-30T05:12:06.984Z,960.38
2017-10-30T05:13:07.033Z,960.39
2017-10-30T05:14:06.963Z,960.42
2017-10-30T05:15:06.976Z,960.38
2017-10-30T05:16:06.992Z,960.45
2017-10-30T05:17:07.011Z,960.44
2017-10-30T05:18:07.021Z,960.38
2017-10-30T05:19:07.036Z,960.41
2017-10-30T05:20:07.052Z,960.4
2017-10-30T05:21:07.066Z,960.41
2017-10-30T05:22:07.081Z,960.43
2017-10-30T05:23:07.096Z,960.39
2017-10-30T05:24:07.114Z,960.4
2017-10-30T05:25:07.127Z,960.39
2017-10-30T05:26:07.138Z,960.45
2017-10-30T05:27:07.154Z,960.39
2017-10-30T05:28:07.170Z,960.39
2017-10-30T05:29:07.234Z,960.43
2017-10-30T05:30:07.200Z,960.43
2017-10-30T05:31:07.214Z,960.43
2017-10-30T05:32:07.229Z,960.44
2017-10-30T05:33:07.243Z,960.45
2017-10-30T05:34:07.259Z,960.5
2017-10-30T05:35:07.279Z,960.41
2017-10-30T05:36:07.287Z,960.45
2017-10-30T05:37:07.302Z,960.44
2017-10-30T05:38:07.316Z,960.43
2017-10-30T05:39:07.332Z,960.46
2017-10-30T05:40:07.347Z,960.48
2017-10-30T05:41:07.361Z,960.48
2017-10-30T05:42:07.377Z,960.57
2017-10-30T05:43:07.391Z,960.49
2017-10-30T05:44:07.406Z,960.53
2017-10-30T05:45:07.422Z,960.52
2017-10-30T05:46:07.437Z,960.54
2017-10-30T05:47:07.501Z,960.56
2017-10-30T05:48:07.471Z,960.55
2017-10-30T05:49:07.481Z,960.55
2017-10-30T05:50:07.516Z,960.6
2017-10-30T05:51:07.510Z,960.63
2017-10-30T05:52:07.526Z,960.63
2017-10-30T05:53:07.540Z,960.55
2017-10-30T05:54:07.557Z,960.57
2017-10-30T05:55:07.578Z,960.61
2017-10-30T05:56:07.585Z,960.63
2017-10-30T05:57:07.602Z,960.59
2017-10-30T05:58:07.615Z,960.67
2017-10-30T05:59:07.643Z,960.69
2017-10-30T06:00:07.645Z,960.65
2017-10-30T06:01:07.661Z,960.68
2017-10-30T06:02:07.675Z,960.7
2017-10-30T06:03:07.690Z,960.68
2017-10-30T06:04:07.704Z,960.65
2017-10-30T06:05:07.721Z,960.74
2017-10-30T06:06:07.735Z,960.78
2017-10-30T06:07:07.749Z,960.75
2017-10-30T06:08:07.765Z,960.78
2017-10-30T06:09:07.780Z,960.8
2017-10-30T06:10:07.794Z,960.79
2017-10-30T06:11:07.860Z,960.84
2017-10-30T06:12:07.825Z,960.84
2017-10-30T06:13:07.841Z,960.89
2017-10-30T06:14:07.854Z,960.9
2017-10-30T06:15:07.869Z,960.92
2017-10-30T06:16:07.886Z,960.94
2017-10-30T06:17:07.900Z,961
2017-10-30T06:18:07.916Z,961.05
2017-10-30T06:19:07.933Z,961.04
2017-10-30T06:20:07.945Z,961.11
2017-10-30T06:21:08.009Z,961.14
2017-10-30T06:22:07.975Z,961.13
2017-10-30T06:23:08.006Z,961.12
2017-10-30T06:24:08.005Z,961.16
2017-10-30T06:25:08.020Z,961.24
2017-10-30T06:26:08.038Z,961.24
2017-10-30T06:27:08.049Z,961.21
2017-10-30T06:28:08.066Z,961.22
2017-10-30T06:29:08.086Z,961.27
2017-10-30T06:30:08.096Z,961.33
2017-10-30T06:31:08.111Z,961.31
2017-10-30T06:32:08.126Z,961.37
2017-10-30T06:33:08.141Z,961.37
2017-10-30T06:34:08.162Z,961.45
2017-10-30T06:35:08.172Z,961.42
2017-10-30T06:36:08.186Z,961.39
2017-10-30T06:37:08.201Z,961.45
2017-10-30T06:38:08.216Z,961.47
2017-10-30T06:39:08.282Z,961.51
2017-10-30T06:40:08.245Z,961.52
2017-10-30T06:41:08.276Z,961.58
2017-10-30T06:42:08.276Z,961.61
2017-10-30T06:43:08.291Z,961.59
2017-10-30T06:44:08.306Z,961.58
2017-10-30T06:45:08.323Z,961.65
2017-10-30T06:46:08.336Z,961.66
2017-10-30T06:47:08.351Z,961.59
2017-10-30T06:48:08.366Z,961.63
2017-10-30T06:49:08.382Z,961.67
2017-10-30T06:50:08.395Z,961.68
2017-10-30T06:51:08.449Z,961.72
2017-10-30T06:52:08.427Z,961.72
2017-10-30T06:53:08.443Z,961.73
2017-10-30T06:54:08.507Z,961.72
2017-10-30T06:55:08.473Z,961.74
2017-10-30T06:56:08.495Z,961.75
2017-10-30T06:57:08.503Z,961.81
2017-10-30T06:58:08.517Z,961.81
2017-10-30T06:59:08.533Z,961.79
2017-10-30T07:00:08.548Z,961.76
2017-10-30T07:01:08.562Z,961.77
2017-10-30T07:02:08.578Z,961.77
2017-10-30T07:03:08.594Z,961.76
2017-10-30T07:04:08.608Z,961.77
2017-10-30T07:05:08.624Z,961.69
2017-10-30T07:06:08.638Z,961.75
2017-10-30T07:07:08.653Z,961.84
2017-10-30T07:08:08.670Z,961.77
2017-10-30T07:09:08.684Z,961.85
2017-10-30T07:10:08.704Z,961.78
2017-10-30T07:11:08.766Z,961.83
2017-10-30T07:12:08.728Z,961.81
2017-10-30T07:13:08.744Z,961.87
2017-10-30T07:14:08.861Z,961.83
2017-10-30T07:15:08.776Z,961.84
2017-10-30T07:16:08.790Z,961.89
2017-10-30T07:17:08.805Z,961.8
2017-10-30T07:18:08.822Z,961.92
2017-10-30T07:19:08.837Z,961.86
2017-10-30T07:20:08.852Z,961.89
2017-10-30T07:21:08.866Z,961.84
2017-10-30T07:22:08.880Z,961.94
2017-10-30T07:23:08.896Z,961.84
2017-10-30T07:24:08.912Z,961.92
2017-10-30T07:25:08.926Z,961.89
2017-10-30T07:26:08.993Z,961.91
2017-10-30T07:27:08.957Z,961.9
2017-10-30T07:28:08.972Z,961.91
2017-10-30T07:29:08.987Z,961.89
2017-10-30T07:30:09.010Z,961.93
2017-10-30T07:31:09.017Z,961.9
2017-10-30T07:32:09.054Z,961.92
2017-10-30T07:33:09.047Z,961.96
2017-10-30T07:34:09.062Z,961.94
2017-10-30T07:35:09.076Z,961.97
2017-10-30T07:36:09.092Z,961.98
2017-10-30T07:37:09.109Z,961.93
2017-10-30T07:38:09.123Z,961.99
2017-10-30T07:39:09.140Z,962.03
2017-10-30T07:40:09.153Z,962.02
2017-10-30T07:41:09.219Z,962.03
2017-10-30T07:42:09.183Z,962.01
2017-10-30T07:43:09.197Z,962.07
2017-10-30T07:44:09.214Z,962.03
2017-10-30T07:45:09.228Z,961.93
2017-10-30T07:46:09.244Z,961.98
2017-10-30T07:47:09.259Z,962.01
2017-10-30T07:48:09.274Z,961.95
2017-10-30T07:49:09.296Z,962.03
2017-10-30T07:50:09.303Z,962.03
2017-10-30T07:51:09.320Z,961.96
2017-10-30T07:52:09.336Z,962.04
2017-10-30T07:53:09.350Z,962.01
2017-10-30T07:54:09.366Z,962.06
2017-10-30T07:55:09.381Z,962.05
2017-10-30T07:56:09.446Z,962.05
2017-10-30T07:57:09.410Z,962.02
2017-10-30T07:58:09.426Z,962.06
2017-10-30T07:59:09.440Z,962.05
2017-10-30T08:00:09.455Z,962.01
2017-10-30T08:01:09.472Z,962.01
2017-10-30T08:02:09.487Z,962.04
2017-10-30T08:03:09.502Z,962.02
2017-10-30T08:04:09.518Z,962.05
2017-10-30T08:05:09.534Z,962.05
2017-10-30T08:06:09.550Z,962.11
2017-10-30T08:07:09.568Z,962.04
2017-10-30T08:08:09.580Z,962.02
2017-10-30T08:09:09.597Z,962.04
2017-10-30T08:10:09.612Z,962.06
2017-10-30T08:11:09.627Z,962.08
2017-10-30T08:12:09.649Z,962.09
2017-10-30T08:13:09.659Z,962.07
2017-10-30T08:14:09.673Z,962.04
2017-10-30T08:15:09.688Z,962.09
2017-10-30T08:16:09.706Z,962.16
2017-10-30T08:17:09.727Z,962.03
2017-10-30T08:18:09.742Z,962.19
2017-10-30T08:19:09.753Z,962.21
2017-10-30T08:20:09.769Z,962.22
2017-10-30T08:21:09.783Z,962.23
2017-10-30T08:22:09.798Z,962.24
2017-10-30T08:23:09.823Z,962.21
2017-10-30T08:24:09.833Z,962.23
2017-10-30T08:25:09.846Z,962.25
2017-10-30T08:26:09.863Z,962.23
2017-10-30T08:27:09.879Z,962.16
2017-10-30T08:28:09.901Z,962.25
2017-10-30T08:29:09.914Z,962.22
2017-10-30T08:30:09.925Z,962.24
2017-10-30T08:31:09.946Z,962.3
2017-10-30T08:32:09.959Z,962.3
2017-10-30T08:33:09.983Z,962.32
2017-10-30T08:34:09.990Z,962.28
2017-10-30T08:35:10.006Z,962.28
2017-10-30T08:36:10.021Z,962.35
2017-10-30T08:37:10.038Z,962.32
2017-10-30T08:38:10.054Z,962.38
2017-10-30T08:39:10.070Z,962.4
2017-10-30T08:40:10.086Z,962.36
2017-10-30T08:41:10.103Z,962.39
2017-10-30T08:42:10.118Z,962.37
2017-10-30T08:43:10.138Z,962.42
2017-10-30T08:44:10.158Z,962.38
2017-10-30T08:45:10.177Z,962.44
2017-10-30T08:46:10.183Z,962.38
2017-10-30T08:47:10.199Z,962.4
2017-10-30T08:48:10.215Z,962.4
2017-10-30T08:49:10.232Z,962.39
2017-10-30T08:50:10.247Z,962.47
2017-10-30T08:51:10.263Z,962.42
2017-10-30T08:52:10.287Z,962.39
2017-10-30T08:53:10.297Z,962.5
2017-10-30T08:54:10.314Z,962.38
2017-10-30T08:55:10.329Z,962.34
2017-10-30T08:56:10.345Z,962.41
2017-10-30T08:57:10.362Z,962.4
2017-10-30T08:58:10.379Z,962.45
2017-10-30T08:59:10.401Z,962.38
2017-10-30T09:00:10.411Z,962.49
2017-10-30T09:01:10.428Z,962.54
2017-10-30T09:02:10.444Z,962.55
2017-10-30T09:03:10.462Z,962.54
2017-10-30T09:04:10.481Z,962.45
2017-10-30T09:05:10.493Z,962.59
2017-10-30T09:06:10.508Z,962.57
2017-10-30T09:07:10.530Z,962.54
2017-10-30T09:08:10.542Z,962.62
2017-10-30T09:09:10.558Z,962.61
2017-10-30T09:10:10.575Z,962.58
2017-10-30T09:11:10.590Z,962.64
2017-10-30T09:12:10.608Z,962.64
2017-10-30T09:13:10.624Z,962.66
2017-10-30T09:14:10.641Z,962.73
2017-10-30T09:15:10.658Z,962.66
2017-10-30T09:16:10.674Z,962.68
2017-10-30T09:17:10.691Z,962.73
2017-10-30T09:18:10.708Z,962.71
2017-10-30T09:19:10.725Z,962.79
2017-10-30T09:20:10.740Z,962.85
2017-10-30T09:21:10.758Z,962.86
2017-10-30T09:22:10.773Z,962.82
2017-10-30T09:23:10.792Z,962.88
2017-10-30T09:24:10.807Z,962.81
2017-10-30T09:25:10.825Z,962.8
2017-10-30T09:26:10.855Z,962.73
2017-10-30T09:27:10.858Z,962.72
2017-10-30T09:28:10.876Z,962.75
2017-10-30T09:29:10.892Z,962.75
2017-10-30T09:30:10.911Z,962.77
2017-10-30T09:31:10.926Z,962.77
2017-10-30T09:32:10.942Z,962.83
2017-10-30T09:33:10.960Z,962.78
2017-10-30T09:34:10.977Z,962.82
2017-10-30T09:35:11.001Z,962.83
2017-10-30T09:36:11.010Z,962.88
2017-10-30T09:37:11.026Z,962.89
2017-10-30T09:38:11.045Z,962.88
2017-10-30T09:39:11.063Z,962.87
2017-10-30T09:40:11.079Z,962.88
2017-10-30T09:41:11.102Z,962.88
2017-10-30T09:42:11.112Z,962.88
2017-10-30T09:43:11.129Z,962.86
2017-10-30T09:44:11.172Z,962.92
2017-10-30T09:45:11.164Z,962.89
2017-10-30T09:46:11.182Z,962.94
2017-10-30T09:47:11.200Z,962.91
2017-10-30T09:48:11.216Z,962.95
2017-10-30T09:49:11.232Z,962.87
2017-10-30T09:50:11.253Z,962.89
2017-10-30T09:51:11.317Z,962.91
2017-10-30T09:52:11.285Z,962.92
2017-10-30T09:53:11.301Z,962.89
2017-10-30T09:54:11.327Z,962.89
2017-10-30T09:55:11.336Z,962.88
2017-10-30T09:56:11.355Z,962.92
2017-10-30T09:57:11.371Z,962.98
2017-10-30T09:58:11.390Z,962.92
2017-10-30T09:59:11.404Z,962.88
2017-10-30T10:00:11.426Z,962.91
2017-10-30T10:01:11.442Z,962.93
2017-10-30T10:02:11.460Z,962.86
2017-10-30T10:03:11.480Z,962.89
2017-10-30T10:04:11.497Z,962.96
2017-10-30T10:05:11.514Z,962.99
2017-10-30T10:06:11.535Z,963.1
2017-10-30T10:07:11.554Z,963.12
2017-10-30T10:08:11.568Z,963.08
2017-10-30T10:09:11.587Z,963.12
2017-10-30T10:10:11.606Z,963.13
2017-10-30T10:11:11.626Z,963.03
2017-10-30T10:12:11.645Z,963.1
2017-10-30T10:13:11.666Z,963.06
2017-10-30T10:14:11.686Z,962.98
2017-10-30T10:15:11.707Z,963.03
2017-10-30T10:16:11.729Z,963.06
2017-10-30T10:17:11.749Z,963.09
2017-10-30T10:18:11.773Z,963.18
2017-10-30T10:19:11.794Z,963.36
2017-10-30T10:20:11.816Z,963.11
2017-10-30T10:21:11.839Z,963.05
2017-10-30T10:22:11.861Z,963.12
2017-10-30T10:23:11.884Z,963.04
2017-10-30T10:24:11.907Z,963.22
2017-10-30T10:25:11.939Z,963.17
2017-10-30T10:26:11.959Z,963.16
2017-10-30T10:27:12.026Z,963.21
2017-10-30T10:28:11.999Z,963.24
2017-10-30T10:29:12.020Z,963.25
2017-10-30T10:30:12.057Z,963.21
2017-10-30T10:31:12.067Z,963.19
2017-10-30T10:32:12.091Z,963.18
2017-10-30T10:33:12.117Z,963.17
2017-10-30T10:34:12.143Z,963.17
2017-10-30T10:35:12.170Z,963.25
2017-10-30T10:36:12.194Z,963.37
2017-10-30T10:37:12.238Z,963.22
2017-10-30T10:38:12.248Z,963.28
2017-10-30T10:39:12.267Z,963.09
2017-10-30T10:40:12.292Z,963.24
2017-10-30T10:41:12.318Z,963.09
2017-10-30T10:42:12.393Z,963.25
2017-10-30T10:43:12.368Z,963.14
2017-10-30T10:44:12.393Z,963.13
2017-10-30T10:45:12.417Z,963.09
2017-10-30T10:46:12.441Z,963.05
2017-10-30T10:47:12.465Z,963.23
2017-10-30T10:48:12.490Z,963.35
2017-10-30T10:49:12.514Z,963.31
2017-10-30T10:50:12.537Z,963.29
2017-10-30T10:51:12.561Z,963.15
2017-10-30T10:52:12.585Z,963.07
2017-10-30T10:53:12.609Z,963.03
2017-10-30T10:54:12.634Z,963.06
2017-10-30T10:55:12.656Z,963.09
2017-10-30T10:56:12.679Z,963.04
2017-10-30T10:57:12.711Z,963.09
2017-10-30T10:58:12.728Z,963.06
2017-10-30T10:59:12.749Z,963.13
2017-10-30T11:00:12.771Z,963.09
2017-10-30T11:01:12.795Z,963.06
2017-10-30T11:02:12.818Z,963.09
2017-10-30T11:03:12.839Z,963.01
2017-10-30T11:04:12.862Z,963.02
2017-10-30T11:05:12.885Z,963.06
2017-10-30T11:06:12.903Z,963.1
2017-10-30T11:07:12.931Z,963.03
2017-10-30T11:08:12.966Z,963
2017-10-30T11:09:12.968Z,962.96
2017-10-30T11:10:12.989Z,963
2017-10-30T11:11:13.010Z,963.03
2017-10-30T11:12:13.030Z,963.03
2017-10-30T11:13:13.051Z,963.09
2017-10-30T11:14:13.076Z,962.96
2017-10-30T11:15:13.140Z,963.08
2017-10-30T11:16:13.112Z,963.06
2017-10-30T11:17:13.130Z,963.11
2017-10-30T11:18:13.150Z,963.16
2017-10-30T11:19:13.173Z,963.15
2017-10-30T11:20:13.189Z,963.1
2017-10-30T11:21:13.208Z,963.11
2017-10-30T11:22:13.234Z,963.12
2017-10-30T11:23:13.248Z,963.13
2017-10-30T11:24:13.266Z,963.12
2017-10-30T11:25:13.287Z,963.13
2017-10-30T11:26:13.306Z,963.15
2017-10-30T11:27:13.325Z,963.11
2017-10-30T11:28:13.346Z,963.09
2017-10-30T11:29:13.363Z,963.09
2017-10-30T11:30:13.386Z,963.07
2017-10-30T11:31:13.466Z,963.07
2017-10-30T11:32:13.418Z,963
2017-10-30T11:33:13.438Z,963.02
2017-10-30T11:34:13.457Z,962.99
2017-10-30T11:35:13.474Z,963
2017-10-30T11:36:13.493Z,963.04
2017-10-30T11:37:13.513Z,963.02
2017-10-30T11:38:13.533Z,963.06
2017-10-30T11:39:13.551Z,963.12
2017-10-30T11:40:13.568Z,963.12
2017-10-30T11:41:13.585Z,963.1
2017-10-30T11:42:13.605Z,963.13
2017-10-30T11:43:13.622Z,963.1
2017-10-30T11:44:13.641Z,963.12
2017-10-30T11:45:13.660Z,963.2
2017-10-30T11:46:13.750Z,963.19
2017-10-30T11:47:13.695Z,963.2
2017-10-30T11:48:13.714Z,963.22
2017-10-30T11:49:13.734Z,963.2
2017-10-30T11:50:13.749Z,963.23
2017-10-30T11:51:13.768Z,963.2
2017-10-30T11:52:13.786Z,963.18
2017-10-30T11:53:13.816Z,963.2
2017-10-30T11:54:13.822Z,963.16
2017-10-30T11:55:13.840Z,963.2
2017-10-30T11:56:13.859Z,963.17
2017-10-30T11:57:13.875Z,963.16
2017-10-30T11:58:13.893Z,963.16
2017-10-30T11:59:13.912Z,963.14
2017-10-30T12:00:13.930Z,963.15
2017-10-30T12:01:13.948Z,963.14
2017-10-30T12:02:13.966Z,963.22
2017-10-30T12:03:13.985Z,963.18
2017-10-30T12:04:14.002Z,963.13
2017-10-30T12:05:14.022Z,963.14
2017-10-30T12:06:14.036Z,963.13
2017-10-30T12:07:14.056Z,963.15
2017-10-30T12:08:14.073Z,963.1
2017-10-30T12:09:14.089Z,963.12
2017-10-30T12:10:14.108Z,963.16
2017-10-30T12:11:14.127Z,963.09
2017-10-30T12:12:14.146Z,963.15
2017-10-30T12:13:14.163Z,963.06
2017-10-30T12:14:14.181Z,963.01
2017-10-30T12:15:14.202Z,963.06
2017-10-30T12:16:14.217Z,963.05
2017-10-30T12:17:14.236Z,963
2017-10-30T12:18:14.255Z,963.07
2017-10-30T12:19:14.274Z,963.03
2017-10-30T12:20:14.291Z,963.11
2017-10-30T12:21:14.309Z,963.15
2017-10-30T12:22:14.326Z,963.14
2017-10-30T12:23:14.348Z,963.12
2017-10-30T12:24:14.362Z,963.16
2017-10-30T12:25:14.381Z,963.14
2017-10-30T12:26:14.400Z,963.13
2017-10-30T12:27:14.417Z,963.15
2017-10-30T12:28:14.442Z,963.14
2017-10-30T12:29:14.452Z,963.17
2017-10-30T12:30:14.471Z,963.14
2017-10-30T12:31:14.489Z,963.15